Time;durP1;ratioP1;P1;durP2;ratioP2;P2;SDS_P1;SDS_P2;PMS_P1;PMS_P2;Temp;Humidity;BMP_temperature;BMP_pressure;BME280_temperature;BME280_humidity;BME280_pressure;Samples;Min_cycle;Max_cycle;Signal;HPM_P1;HPM_P2
2022/03/08 00:02:31;;;;;;;33.40;13.27;;;;;;;;;;6179137;23;20175;-90
2022/03/08 00:05:36;;;;;;;30.20;13.13;;;;;;;;;;6179052;23;20176;-90
2022/03/08 00:08:42;;;;;;;28.17;12.53;;;;;;;;;;6178338;23;20168;-91
2022/03/08 00:11:50;;;;;;;31.17;13.53;;;;;;;;;;6177932;23;20267;-91
2022/03/08 00:14:57;;;;;;;26.93;13.03;;;;;;;;;;6175857;23;20615;-91
2022/03/08 00:18:02;;;;;;;28.33;12.57;;;;;;;;;;6193941;23;20647;-90
2022/03/08 00:21:07;;;;;;;29.90;13.20;;;;;;;;;;6175531;23;20201;-90
2022/03/08 00:24:14;;;;;;;27.70;12.50;;;;;;;;;;6178211;23;20171;-90
2022/03/08 00:27:21;;;;;;;28.60;13.57;;;;;;;;;;6177468;23;20515;-91
2022/03/08 00:30:27;;;;;;;30.30;13.30;;;;;;;;;;6176342;23;20723;-91
2022/03/08 00:33:33;;;;;;;25.27;12.80;;;;;;;;;;6176895;23;20219;-90
2022/03/08 00:36:39;;;;;;;28.70;13.10;;;;;;;;;;6175443;23;20171;-91
2022/03/08 00:39:44;;;;;;;29.03;13.27;;;;;;;;;;6175975;23;20163;-91
2022/03/08 00:42:51;;;;;;;30.40;12.83;;;;;;;;;;6193945;23;20176;-90
2022/03/08 00:45:56;;;;;;;28.43;12.83;;;;;;;;;;6176435;23;20175;-90
2022/03/08 00:49:02;;;;;;;28.43;12.90;;;;;;;;;;6177066;23;20627;-92
2022/03/08 00:52:10;;;;;;;26.97;13.17;;;;;;;;;;6193431;23;20175;-91
2022/03/08 00:55:15;;;;;;;27.47;12.43;;;;;;;;;;6174195;23;20172;-91
2022/03/08 00:58:22;;;;;;;29.23;13.20;;;;;;;;;;6175870;23;20195;-91
2022/03/08 01:01:27;;;;;;;31.63;13.17;;;;;;;;;;6175099;23;20207;-92
2022/03/08 01:04:32;;;;;;;28.53;13.23;;;;;;;;;;6174530;23;20172;-90
2022/03/08 01:07:36;;;;;;;33.87;14.30;;;;;;;;;;6174233;23;20576;-88
2022/03/08 01:10:42;;;;;;;33.67;13.67;;;;;;;;;;6192535;23;20176;-91
2022/03/08 01:13:51;;;;;;;28.47;13.27;;;;;;;;;;6193417;23;20190;-91
2022/03/08 01:16:57;;;;;;;30.33;13.87;;;;;;;;;;6176949;23;20176;-91
2022/03/08 01:20:03;;;;;;;28.57;13.27;;;;;;;;;;6176418;23;20166;-91
2022/03/08 01:23:08;;;;;;;26.10;13.37;;;;;;;;;;6178816;23;20176;-91
2022/03/08 01:26:14;;;;;;;33.60;14.10;;;;;;;;;;6178870;23;20176;-90
2022/03/08 01:29:21;;;;;;;29.33;13.47;;;;;;;;;;6185687;23;20156;-90
2022/03/08 01:32:26;;;;;;;33.87;14.40;;;;;;;;;;6180463;23;20175;-90
2022/03/08 01:35:30;;;;;;;31.10;14.23;;;;;;;;;;6179544;23;20176;-90
2022/03/08 01:38:36;;;;;;;34.23;14.67;;;;;;;;;;6179081;23;20190;-92
2022/03/08 01:41:41;;;;;;;30.87;13.97;;;;;;;;;;6178674;23;20172;-90
2022/03/08 01:44:51;;;;;;;31.90;14.60;;;;;;;;;;6178346;23;20611;-90
2022/03/08 01:47:56;;;;;;;30.77;14.63;;;;;;;;;;6197956;23;20195;-90
2022/03/08 01:51:01;;;;;;;32.30;15.17;;;;;;;;;;6180624;23;20211;-91
2022/03/08 01:54:07;;;;;;;28.80;13.77;;;;;;;;;;6179151;23;20175;-90
2022/03/08 01:57:13;;;;;;;33.57;13.97;;;;;;;;;;6166404;23;20192;-91
2022/03/08 02:00:21;;;;;;;28.40;13.90;;;;;;;;;;6165669;23;20152;-91
2022/03/08 02:03:27;;;;;;;30.20;13.83;;;;;;;;;;6164051;23;20180;-91
2022/03/08 02:06:31;;;;;;;30.20;14.20;;;;;;;;;;6164359;23;20159;-91
2022/03/08 02:09:36;;;;;;;28.77;13.17;;;;;;;;;;6165257;23;20280;-89
2022/03/08 02:12:41;;;;;;;34.53;14.27;;;;;;;;;;6164606;23;20628;-91
2022/03/08 02:15:50;;;;;;;29.87;13.73;;;;;;;;;;6165398;23;20172;-91
2022/03/08 02:18:55;;;;;;;31.97;14.50;;;;;;;;;;6166685;23;20192;-91
2022/03/08 02:22:02;;;;;;;31.87;14.47;;;;;;;;;;6163447;23;20691;-90
2022/03/08 02:25:08;;;;;;;34.93;14.37;;;;;;;;;;6162678;23;20173;-90
2022/03/08 02:28:13;;;;;;;38.13;15.67;;;;;;;;;;6163517;23;20165;-90
2022/03/08 02:31:18;;;;;;;31.17;13.67;;;;;;;;;;6164733;23;20169;-91
2022/03/08 02:34:22;;;;;;;27.67;13.20;;;;;;;;;;6164634;23;20172;-91
2022/03/08 02:37:37;;;;;;;30.97;14.43;;;;;;;;;;6164560;23;20240;-91
2022/03/08 02:40:43;;;;;;;30.27;14.27;;;;;;;;;;6165692;23;20193;-91
2022/03/08 02:43:48;;;;;;;29.90;13.50;;;;;;;;;;6165552;23;20192;-91
2022/03/08 02:46:52;;;;;;;34.73;14.30;;;;;;;;;;6164720;23;20165;-91
2022/03/08 02:49:57;;;;;;;38.37;14.60;;;;;;;;;;6164469;23;20171;-90
2022/03/08 02:53:04;;;;;;;32.43;14.50;;;;;;;;;;6165033;23;20165;-90
2022/03/08 02:56:09;;;;;;;32.53;14.73;;;;;;;;;;6163875;23;20621;-89
2022/03/08 02:59:20;;;;;;;32.03;14.37;;;;;;;;;;6147155;23;20522;-91
2022/03/08 03:02:25;;;;;;;29.13;13.47;;;;;;;;;;6164854;23;20172;-91
2022/03/08 03:05:30;;;;;;;32.50;14.40;;;;;;;;;;6164327;23;20173;-91
2022/03/08 03:08:36;;;;;;;31.87;14.63;;;;;;;;;;6166443;23;20187;-90
2022/03/08 03:11:42;;;;;;;32.07;14.33;;;;;;;;;;6164670;23;20367;-91
2022/03/08 03:14:46;;;;;;;28.57;13.00;;;;;;;;;;6164098;23;20199;-91
2022/03/08 03:17:52;;;;;;;33.90;13.90;;;;;;;;;;6164740;23;20263;-91
2022/03/08 03:20:57;;;;;;;29.10;13.73;;;;;;;;;;6164840;23;20203;-92
2022/03/08 03:24:03;;;;;;;28.63;13.63;;;;;;;;;;6165281;23;20244;-91
2022/03/08 03:27:08;;;;;;;30.10;13.57;;;;;;;;;;6163502;23;20502;-90
2022/03/08 03:30:16;;;;;;;31.43;13.93;;;;;;;;;;6163172;23;20175;-90
2022/03/08 03:33:21;;;;;;;30.47;13.87;;;;;;;;;;6162847;23;20632;-90
2022/03/08 03:36:27;;;;;;;27.40;13.40;;;;;;;;;;6163582;23;20160;-90
2022/03/08 03:39:33;;;;;;;28.33;12.60;;;;;;;;;;6165069;23;20243;-90
2022/03/08 03:42:38;;;;;;;28.97;13.97;;;;;;;;;;6164893;23;20172;-91
2022/03/08 03:45:43;;;;;;;30.13;13.70;;;;;;;;;;6164094;23;20172;-90
2022/03/08 03:48:48;;;;;;;28.67;13.60;;;;;;;;;;6164864;23;20292;-91
2022/03/08 03:51:53;;;;;;;32.07;14.50;;;;;;;;;;6164190;23;20577;-90
2022/03/08 03:55:00;;;;;;;30.23;14.43;;;;;;;;;;6164417;23;20176;-90
2022/03/08 03:58:05;;;;;;;33.47;14.80;;;;;;;;;;6164709;23;20172;-90
2022/03/08 04:01:10;;;;;;;34.43;14.70;;;;;;;;;;6165391;23;20164;-89
2022/03/08 04:04:15;;;;;;;36.47;15.60;;;;;;;;;;6164195;23;20177;-90
2022/03/08 04:07:20;;;;;;;34.00;13.27;;;;;;;;;;6165214;23;20625;-90
2022/03/08 04:10:27;;;;;;;33.50;14.87;;;;;;;;;;6164003;23;20245;-91
2022/03/08 04:13:32;;;;;;;33.43;14.53;;;;;;;;;;6164602;23;20172;-90
2022/03/08 04:16:37;;;;;;;41.17;15.53;;;;;;;;;;6164172;23;20175;-89
2022/03/08 04:19:42;;;;;;;35.33;14.23;;;;;;;;;;6165292;23;20267;-90
2022/03/08 04:22:48;;;;;;;117.10;40.13;;;;;;;;;;6163260;23;20510;-91
2022/03/08 04:25:54;;;;;;;124.87;44.67;;;;;;;;;;6164086;23;20220;-91
2022/03/08 04:28:58;;;;;;;33.30;13.73;;;;;;;;;;6163798;23;20602;-90
2022/03/08 04:32:03;;;;;;;32.23;14.13;;;;;;;;;;6162871;23;20198;-89
2022/03/08 04:35:09;;;;;;;31.87;14.33;;;;;;;;;;6163535;23;20176;-90
2022/03/08 04:38:14;;;;;;;38.30;15.77;;;;;;;;;;6165257;23;20173;-92
2022/03/08 04:41:20;;;;;;;36.70;15.90;;;;;;;;;;6164860;23;20168;-90
2022/03/08 04:44:25;;;;;;;35.70;14.97;;;;;;;;;;6163798;23;20259;-90
2022/03/08 04:47:30;;;;;;;37.37;15.43;;;;;;;;;;6162633;23;20180;-92
2022/03/08 04:50:35;;;;;;;36.93;15.73;;;;;;;;;;6163979;23;20220;-89
2022/03/08 04:53:42;;;;;;;37.10;15.80;;;;;;;;;;6164438;23;20211;-90
2022/03/08 04:56:48;;;;;;;35.07;15.10;;;;;;;;;;6162531;23;20324;-91
2022/03/08 04:59:53;;;;;;;33.60;14.50;;;;;;;;;;6164984;23;20203;-91
2022/03/08 05:03:00;;;;;;;37.50;15.00;;;;;;;;;;6163657;23;20173;-90
2022/03/08 05:06:06;;;;;;;41.17;15.87;;;;;;;;;;6161770;23;20216;-90
2022/03/08 05:09:11;;;;;;;35.23;15.10;;;;;;;;;;6164065;23;20300;-90
2022/03/08 05:12:18;;;;;;;33.67;15.00;;;;;;;;;;6164859;23;20176;-91
2022/03/08 05:15:23;;;;;;;31.33;14.30;;;;;;;;;;6164481;23;20215;-88
2022/03/08 05:18:28;;;;;;;35.87;14.40;;;;;;;;;;6165530;23;20176;-90
2022/03/08 05:21:33;;;;;;;37.63;14.63;;;;;;;;;;6164627;23;20172;-90
2022/03/08 05:24:38;;;;;;;33.47;14.97;;;;;;;;;;6162503;23;20244;-90
2022/03/08 05:27:45;;;;;;;31.83;14.40;;;;;;;;;;6164817;23;20161;-90
2022/03/08 05:30:50;;;;;;;39.83;15.40;;;;;;;;;;6162820;23;20148;-88
2022/03/08 05:33:56;;;;;;;49.17;15.67;;;;;;;;;;6167003;23;20181;-88
2022/03/08 05:37:01;;;;;;;34.60;14.40;;;;;;;;;;6165138;23;20625;-89
2022/03/08 05:40:07;;;;;;;32.90;14.90;;;;;;;;;;6164921;23;20184;-89
2022/03/08 05:43:14;;;;;;;32.37;12.77;;;;;;;;;;6164777;23;20209;-87
2022/03/08 05:46:19;;;;;;;33.87;13.93;;;;;;;;;;6165138;23;20728;-89
2022/03/08 05:49:24;;;;;;;38.50;14.43;;;;;;;;;;6166877;23;20176;-90
2022/03/08 05:52:29;;;;;;;32.80;14.00;;;;;;;;;;6164954;23;20169;-88
2022/03/08 05:55:34;;;;;;;30.87;13.67;;;;;;;;;;6173929;23;20265;-88
2022/03/08 05:58:41;;;;;;;34.40;13.90;;;;;;;;;;6178188;23;20168;-92
2022/03/08 06:01:46;;;;;;;34.50;12.87;;;;;;;;;;6178716;23;20219;-89
2022/03/08 06:04:51;;;;;;;38.27;13.80;;;;;;;;;;6178930;23;20176;-90
2022/03/08 06:07:58;;;;;;;32.20;13.07;;;;;;;;;;6197533;23;20266;-89
2022/03/08 06:11:03;;;;;;;34.10;14.67;;;;;;;;;;6180670;23;20611;-89
2022/03/08 06:14:09;;;;;;;34.17;14.67;;;;;;;;;;6181144;23;20617;-89
2022/03/08 06:17:15;;;;;;;33.20;13.90;;;;;;;;;;6200743;23;20228;-88
2022/03/08 06:20:20;;;;;;;33.67;13.57;;;;;;;;;;6198245;23;20196;-88
2022/03/08 06:23:26;;;;;;;35.00;15.33;;;;;;;;;;6199720;23;20197;-88
2022/03/08 06:26:32;;;;;;;35.10;14.63;;;;;;;;;;6178827;23;20183;-88
2022/03/08 06:33:00;;;;;;;35.80;13.90;;;;;;;;;;6201903;23;20196;-89
2022/03/08 06:36:07;;;;;;;36.20;15.10;;;;;;;;;;6182922;23;20509;-89
2022/03/08 06:39:13;;;;;;;33.37;13.00;;;;;;;;;;6182007;23;20167;-88
2022/03/08 06:42:19;;;;;;;31.33;14.00;;;;;;;;;;6180814;23;20176;-90
2022/03/08 06:45:26;;;;;;;32.57;12.93;;;;;;;;;;6196476;23;20227;-89
2022/03/08 06:48:31;;;;;;;37.00;14.93;;;;;;;;;;6195180;23;20211;-88
2022/03/08 06:51:37;;;;;;;30.13;12.73;;;;;;;;;;6181195;23;20171;-88
2022/03/08 06:54:42;;;;;;;41.00;14.43;;;;;;;;;;6179172;23;20179;-88
2022/03/08 06:57:51;;;;;;;34.20;13.73;;;;;;;;;;6179511;23;20233;-88
2022/03/08 07:00:58;;;;;;;36.43;14.10;;;;;;;;;;6179561;23;20319;-89
2022/03/08 07:04:11;;;;;;;35.33;14.17;;;;;;;;;;6181423;23;20176;-88
2022/03/08 07:07:17;;;;;;;30.47;13.47;;;;;;;;;;6179704;23;20164;-90
2022/03/08 07:10:22;;;;;;;35.57;14.93;;;;;;;;;;6180212;23;20175;-90
2022/03/08 07:13:27;;;;;;;34.03;13.97;;;;;;;;;;6180114;23;20176;-87
2022/03/08 07:16:34;;;;;;;34.57;15.37;;;;;;;;;;6180740;23;20258;-89
2022/03/08 07:19:39;;;;;;;34.27;14.53;;;;;;;;;;6197390;23;20274;-90
2022/03/08 07:22:44;;;;;;;35.00;14.90;;;;;;;;;;6180648;23;20171;-90
2022/03/08 07:25:49;;;;;;;42.53;15.67;;;;;;;;;;6181215;23;20184;-90
2022/03/08 07:28:54;;;;;;;36.67;15.43;;;;;;;;;;6181081;23;20236;-89
2022/03/08 07:32:00;;;;;;;37.63;15.23;;;;;;;;;;6180482;23;20155;-90
2022/03/08 07:35:07;;;;;;;36.67;15.87;;;;;;;;;;6179438;23;20751;-88
2022/03/08 07:38:12;;;;;;;35.23;14.10;;;;;;;;;;6182955;23;20160;-89
2022/03/08 07:41:17;;;;;;;39.77;14.97;;;;;;;;;;6182116;23;20200;-89
2022/03/08 07:44:23;;;;;;;35.40;14.87;;;;;;;;;;6180980;23;20295;-89
2022/03/08 07:47:29;;;;;;;34.43;15.23;;;;;;;;;;6180849;23;20172;-90
2022/03/08 07:50:35;;;;;;;40.20;15.23;;;;;;;;;;6181861;23;20159;-90
2022/03/08 07:53:40;;;;;;;29.67;13.80;;;;;;;;;;6184344;23;20199;-88
2022/03/08 07:56:47;;;;;;;33.33;14.63;;;;;;;;;;6171271;23;20220;-90
2022/03/08 07:59:52;;;;;;;33.33;14.83;;;;;;;;;;6170771;23;20195;-91
2022/03/08 08:02:59;;;;;;;38.07;15.07;;;;;;;;;;6171343;23;20220;-89
2022/03/08 08:06:04;;;;;;;39.97;16.17;;;;;;;;;;6169608;23;20193;-89
2022/03/08 08:09:09;;;;;;;43.93;15.17;;;;;;;;;;6166811;23;20247;-89
2022/03/08 08:12:15;;;;;;;38.97;15.10;;;;;;;;;;6167964;23;20176;-89
2022/03/08 08:15:22;;;;;;;32.17;14.97;;;;;;;;;;6168856;23;20226;-88
2022/03/08 08:18:29;;;;;;;35.40;15.73;;;;;;;;;;6167813;23;20169;-90
2022/03/08 08:21:34;;;;;;;33.80;14.57;;;;;;;;;;6172683;23;20221;-89
2022/03/08 08:24:39;;;;;;;31.13;14.27;;;;;;;;;;6171101;23;20176;-88
2022/03/08 08:27:44;;;;;;;38.63;15.33;;;;;;;;;;6167253;23;20172;-89
2022/03/08 08:30:50;;;;;;;25.73;13.67;;;;;;;;;;6169390;23;20201;-90
2022/03/08 08:33:56;;;;;;;32.23;13.27;;;;;;;;;;6174181;23;20288;-89
2022/03/08 08:37:01;;;;;;;30.57;12.57;;;;;;;;;;6173064;23;20173;-88
2022/03/08 08:40:08;;;;;;;31.77;12.77;;;;;;;;;;6170931;23;20727;-89
2022/03/08 08:43:13;;;;;;;29.67;10.93;;;;;;;;;;6169546;23;20160;-87
2022/03/08 08:46:18;;;;;;;27.97;13.03;;;;;;;;;;6174024;23;20515;-87
2022/03/08 08:49:26;;;;;;;32.23;13.67;;;;;;;;;;6170932;23;20172;-89
2022/03/08 08:52:31;;;;;;;24.50;11.63;;;;;;;;;;6172236;23;20176;-88
2022/03/08 08:55:37;;;;;;;21.50;10.20;;;;;;;;;;6178493;23;20191;-89
2022/03/08 08:58:42;;;;;;;33.00;11.80;;;;;;;;;;6184697;23;20155;-88
2022/03/08 09:01:47;;;;;;;30.20;11.53;;;;;;;;;;6182926;23;20203;-88
2022/03/08 09:04:54;;;;;;;25.37;10.50;;;;;;;;;;6183035;23;20176;-84
2022/03/08 09:07:59;;;;;;;21.83;10.23;;;;;;;;;;6182873;23;20156;-88
2022/03/08 09:11:08;;;;;;;27.97;11.17;;;;;;;;;;6184417;23;20227;-88
2022/03/08 09:14:14;;;;;;;24.87;10.07;;;;;;;;;;6183472;23;20215;-89
2022/03/08 09:17:19;;;;;;;26.20;10.73;;;;;;;;;;6185387;23;20257;-89
2022/03/08 09:20:26;;;;;;;25.83;10.97;;;;;;;;;;6185623;23;20199;-90
2022/03/08 09:23:31;;;;;;;19.87;9.73;;;;;;;;;;6185818;23;20192;-90
2022/03/08 09:26:36;;;;;;;24.27;10.83;;;;;;;;;;6201897;23;20160;-89
2022/03/08 09:29:41;;;;;;;21.33;9.93;;;;;;;;;;6201816;23;20223;-90
2022/03/08 09:32:46;;;;;;;19.53;9.17;;;;;;;;;;6201190;23;20168;-89
2022/03/08 09:35:53;;;;;;;19.40;9.13;;;;;;;;;;6185053;23;20151;-88
2022/03/08 09:38:58;;;;;;;19.23;8.17;;;;;;;;;;6203869;23;20223;-89
2022/03/08 09:42:05;;;;;;;21.03;9.37;;;;;;;;;;6185666;23;20229;-89
2022/03/08 09:45:10;;;;;;;20.67;9.20;;;;;;;;;;6200507;23;20175;-89
2022/03/08 09:48:16;;;;;;;22.63;9.80;;;;;;;;;;6182522;23;20175;-89
2022/03/08 09:51:31;;;;;;;25.67;9.70;;;;;;;;;;6201769;23;20230;-89
2022/03/08 09:54:37;;;;;;;24.63;9.50;;;;;;;;;;6204568;23;20225;-89
2022/03/08 09:57:43;;;;;;;21.37;9.27;;;;;;;;;;6154645;23;20160;-88
2022/03/08 10:00:51;;;;;;;18.23;8.87;;;;;;;;;;6152009;23;20196;-86
2022/03/08 10:03:57;;;;;;;18.47;8.03;;;;;;;;;;6154265;23;20226;-88
2022/03/08 10:07:14;;;;;;;18.80;8.50;;;;;;;;;;6152954;23;20173;-89
2022/03/08 10:10:19;;;;;;;17.70;7.77;;;;;;;;;;6152677;23;20173;-90
2022/03/08 10:13:26;;;;;;;16.23;6.43;;;;;;;;;;6153710;23;20169;-89
2022/03/08 10:16:42;;;;;;;14.93;7.17;;;;;;;;;;6152253;23;20597;-88
2022/03/08 10:19:47;;;;;;;9.43;4.03;;;;;;;;;;6155436;23;20177;-89
2022/03/08 10:22:53;;;;;;;13.47;4.10;;;;;;;;;;6155447;23;20652;-88
2022/03/08 10:26:04;;;;;;;7.63;3.33;;;;;;;;;;6155847;23;20624;-88
2022/03/08 10:29:09;;;;;;;9.23;3.10;;;;;;;;;;6153254;23;20216;-89
2022/03/08 10:32:17;;;;;;;9.57;3.80;;;;;;;;;;6151527;23;20181;-89
2022/03/08 10:35:26;;;;;;;7.63;3.50;;;;;;;;;;6155061;23;20152;-90
2022/03/08 10:38:32;;;;;;;9.83;4.07;;;;;;;;;;6152887;23;20172;-89
2022/03/08 10:41:40;;;;;;;7.17;3.43;;;;;;;;;;6153799;23;20196;-89
2022/03/08 10:44:45;;;;;;;8.60;3.50;;;;;;;;;;6154396;23;20536;-88
2022/03/08 10:47:51;;;;;;;7.93;3.50;;;;;;;;;;6155965;23;20220;-87
2022/03/08 10:50:56;;;;;;;8.17;3.20;;;;;;;;;;6155530;23;20185;-89
2022/03/08 10:54:14;;;;;;;9.77;3.47;;;;;;;;;;6152543;23;20612;-90
2022/03/08 10:57:19;;;;;;;9.37;3.73;;;;;;;;;;6183645;23;20192;-88
2022/03/08 11:00:29;;;;;;;6.73;3.60;;;;;;;;;;6203496;23;20271;-90
2022/03/08 11:03:35;;;;;;;8.00;3.30;;;;;;;;;;6187225;23;20155;-90
2022/03/08 11:06:41;;;;;;;7.27;3.10;;;;;;;;;;6199858;23;20208;-87
2022/03/08 11:09:48;;;;;;;10.40;4.00;;;;;;;;;;6198079;23;20181;-87
2022/03/08 11:12:57;;;;;;;6.27;2.63;;;;;;;;;;6200914;23;20238;-88
2022/03/08 11:16:02;;;;;;;39.97;4.80;;;;;;;;;;6200434;23;20167;-87
2022/03/08 11:19:07;;;;;;;23.97;3.70;;;;;;;;;;6184851;23;20171;-89
2022/03/08 11:22:13;;;;;;;9.97;3.20;;;;;;;;;;6183632;23;20606;-88
2022/03/08 11:25:20;;;;;;;22.63;4.17;;;;;;;;;;6200771;23;20196;-88
2022/03/08 11:28:26;;;;;;;9.73;3.60;;;;;;;;;;6184282;23;20211;-88
2022/03/08 11:31:32;;;;;;;9.97;3.53;;;;;;;;;;6201761;23;20171;-87
2022/03/08 11:34:39;;;;;;;8.40;3.37;;;;;;;;;;6187360;23;20246;-90
2022/03/08 11:37:47;;;;;;;22.87;4.00;;;;;;;;;;6203255;23;20544;-88
2022/03/08 11:40:55;;;;;;;6.37;3.27;;;;;;;;;;6203740;23;20331;-88
2022/03/08 11:44:01;;;;;;;30.43;3.37;;;;;;;;;;6199385;23;20221;-89
2022/03/08 11:47:11;;;;;;;7.27;2.53;;;;;;;;;;6200704;23;20172;-89
2022/03/08 11:50:22;;;;;;;7.73;2.90;;;;;;;;;;6182742;23;20194;-88
2022/03/08 11:53:27;;;;;;;7.80;3.27;;;;;;;;;;6184066;23;20251;-89
2022/03/08 11:56:44;;;;;;;8.53;3.33;;;;;;;;;;6200580;23;20191;-88
2022/03/08 12:00:05;;;;;;;7.30;3.03;;;;;;;;;;6199945;23;20172;-89
2022/03/08 12:03:38;;;;;;;8.97;3.17;;;;;;;;;;6112718;23;20294;-89
2022/03/08 12:06:50;;;;;;;9.47;3.67;;;;;;;;;;6109653;23;20262;-88
2022/03/08 12:10:14;;;;;;;9.77;4.27;;;;;;;;;;6095126;23;20214;-87
2022/03/08 12:13:25;;;;;;;7.37;3.43;;;;;;;;;;6092948;23;20178;-90
2022/03/08 12:16:30;;;;;;;10.10;3.30;;;;;;;;;;6092533;23;20173;-89
2022/03/08 12:19:36;;;;;;;9.53;3.27;;;;;;;;;;6090343;23;20198;-88
2022/03/08 12:22:42;;;;;;;8.97;3.37;;;;;;;;;;6095057;23;20217;-89
2022/03/08 12:26:19;;;;;;;7.20;3.00;;;;;;;;;;6109673;23;20173;-86
2022/03/08 12:29:26;;;;;;;6.40;2.95;;;;;;;;;;6110020;23;20187;-88
2022/03/08 12:32:33;;;;;;;9.23;3.40;;;;;;;;;;6108841;23;20191;-88
2022/03/08 12:35:52;;;;;;;5.77;2.80;;;;;;;;;;6182787;23;20196;-87
2022/03/08 12:38:57;;;;;;;10.60;3.17;;;;;;;;;;6200101;23;20175;-88
2022/03/08 12:42:06;;;;;;;6.97;3.03;;;;;;;;;;6200114;23;20220;-90
2022/03/08 12:45:14;;;;;;;7.70;3.20;;;;;;;;;;6183998;23;20172;-89
2022/03/08 12:48:20;;;;;;;10.07;3.73;;;;;;;;;;6203063;23;20239;-89
2022/03/08 12:51:26;;;;;;;6.93;3.07;;;;;;;;;;6202103;23;20228;-90
2022/03/08 12:54:32;;;;;;;8.83;3.20;;;;;;;;;;6201287;23;20160;-88
2022/03/08 12:57:51;;;;;;;8.07;2.85;;;;;;;;;;6183117;23;20152;-90
2022/03/08 13:00:58;;;;;;;7.60;2.73;;;;;;;;;;6183513;23;22039;-89
2022/03/08 13:07:25;;;;;;;6.67;3.13;;;;;;;;;;6183172;23;20280;-88
2022/03/08 13:10:31;;;;;;;7.57;2.93;;;;;;;;;;6201160;23;20180;-89
2022/03/08 13:13:38;;;;;;;6.70;2.70;;;;;;;;;;6202667;23;20261;-88
2022/03/08 13:16:47;;;;;;;7.63;3.00;;;;;;;;;;6201386;23;20191;-88
2022/03/08 13:19:52;;;;;;;4.72;2.15;;;;;;;;;;6200777;23;20168;-89
2022/03/08 13:22:59;;;;;;;6.77;2.87;;;;;;;;;;6200646;23;20191;-90
2022/03/08 13:26:07;;;;;;;5.20;2.13;;;;;;;;;;6181173;23;20638;-89
2022/03/08 13:29:18;;;;;;;5.65;2.67;;;;;;;;;;6197921;23;20245;-89
2022/03/08 13:32:24;;;;;;;9.85;2.63;;;;;;;;;;6197742;23;20183;-88
2022/03/08 13:35:30;;;;;;;6.50;2.53;;;;;;;;;;6198787;23;20159;-89
2022/03/08 13:38:36;;;;;;;6.57;2.63;;;;;;;;;;6183363;23;20192;-88
2022/03/08 13:41:41;;;;;;;7.10;2.70;;;;;;;;;;6198469;23;20655;-86
2022/03/08 13:44:46;;;;;;;5.55;2.50;;;;;;;;;;6198634;23;20172;-88
2022/03/08 13:47:55;;;;;;;6.75;2.75;;;;;;;;;;6198544;23;20546;-89
2022/03/08 13:51:06;;;;;;;9.20;3.25;;;;;;;;;;6168259;23;20177;-88
2022/03/08 13:54:13;;;;;;;7.40;2.85;;;;;;;;;;6186923;23;20156;-89
2022/03/08 13:57:18;;;;;;;6.03;2.60;;;;;;;;;;6187440;23;20196;-87
2022/03/08 14:00:28;;;;;;;10.40;2.53;;;;;;;;;;6171626;23;20169;-89
2022/03/08 14:03:40;;;;;;;6.87;2.20;;;;;;;;;;6171391;23;20193;-88
2022/03/08 14:06:52;;;;;;;10.27;2.43;;;;;;;;;;6171325;23;20183;-88
2022/03/08 14:09:57;;;;;;;7.97;2.33;;;;;;;;;;6172297;23;20178;-88
2022/03/08 14:13:09;;;;;;;5.03;2.37;;;;;;;;;;6169991;23;20189;-88
2022/03/08 14:16:15;;;;;;;6.50;3.17;;;;;;;;;;6167118;23;20188;-89
2022/03/08 14:19:23;;;;;;;7.43;3.35;;;;;;;;;;6169269;23;20236;-89
2022/03/08 14:22:29;;;;;;;10.98;2.72;;;;;;;;;;6168873;23;20197;-89
2022/03/08 14:25:34;;;;;;;13.70;3.00;;;;;;;;;;6170200;23;20197;-87
2022/03/08 14:28:47;;;;;;;12.93;2.88;;;;;;;;;;6168952;23;20635;-90
2022/03/08 14:31:53;;;;;;;17.73;3.38;;;;;;;;;;6171287;23;20200;-89
2022/03/08 14:35:10;;;;;;;4.85;2.30;;;;;;;;;;6169703;23;20168;-88
2022/03/08 14:38:17;;;;;;;7.53;2.92;;;;;;;;;;6171814;23;20205;-88
2022/03/08 14:41:26;;;;;;;5.47;2.33;;;;;;;;;;6173392;23;20169;-88
2022/03/08 14:44:32;;;;;;;6.75;2.70;;;;;;;;;;6176993;23;20217;-88
2022/03/08 14:47:38;;;;;;;5.88;2.63;;;;;;;;;;6169803;23;20176;-88
2022/03/08 14:50:47;;;;;;;6.53;2.65;;;;;;;;;;6170544;23;20222;-88
2022/03/08 14:54:00;;;;;;;10.73;5.20;;;;;;;;;;6172077;23;20176;-89
2022/03/08 14:57:06;;;;;;;12.32;5.25;;;;;;;;;;6190975;23;20236;-86
2022/03/08 15:00:20;;;;;;;8.85;4.28;;;;;;;;;;6173128;23;20169;-88
2022/03/08 15:03:26;;;;;;;11.90;3.88;;;;;;;;;;6171491;23;20160;-88
2022/03/08 15:06:41;;;;;;;9.27;4.90;;;;;;;;;;6170936;23;20172;-89
2022/03/08 15:09:47;;;;;;;12.88;5.13;;;;;;;;;;6172652;23;20222;-90
2022/03/08 15:12:52;;;;;;;9.25;5.20;;;;;;;;;;6169613;23;20198;-90
2022/03/08 15:15:57;;;;;;;9.30;5.30;;;;;;;;;;6170788;23;20168;-88
2022/03/08 15:19:03;;;;;;;13.32;5.53;;;;;;;;;;6171868;23;20250;-88
2022/03/08 15:22:12;;;;;;;13.85;5.43;;;;;;;;;;6172888;23;20165;-89
2022/03/08 15:25:18;;;;;;;14.40;5.28;;;;;;;;;;6171180;23;20240;-90
2022/03/08 15:28:23;;;;;;;18.60;6.13;;;;;;;;;;6170663;23;20248;-88
2022/03/08 15:31:31;;;;;;;12.38;6.13;;;;;;;;;;6171243;23;20172;-88
2022/03/08 15:34:37;;;;;;;9.38;4.50;;;;;;;;;;6170378;23;20548;-88
2022/03/08 15:37:43;;;;;;;16.55;5.13;;;;;;;;;;6170066;23;20176;-90
2022/03/08 15:40:49;;;;;;;13.80;6.22;;;;;;;;;;6174222;23;20225;-89
2022/03/08 15:43:55;;;;;;;13.85;6.07;;;;;;;;;;6171351;23;20180;-89
2022/03/08 15:47:03;;;;;;;11.40;4.97;;;;;;;;;;6170924;23;20173;-89
2022/03/08 15:50:11;;;;;;;13.25;5.47;;;;;;;;;;6186984;23;20197;-89
2022/03/08 15:53:20;;;;;;;11.98;5.30;;;;;;;;;;6169795;23;20237;-88
2022/03/08 15:56:25;;;;;;;14.63;5.72;;;;;;;;;;6189991;23;20207;-89
2022/03/08 15:59:30;;;;;;;15.93;5.15;;;;;;;;;;6171171;23;20167;-89
2022/03/08 16:02:36;;;;;;;16.15;5.78;;;;;;;;;;6174574;23;20248;-88
2022/03/08 16:05:42;;;;;;;17.10;6.18;;;;;;;;;;6170686;23;20180;-88
2022/03/08 16:08:50;;;;;;;22.17;6.00;;;;;;;;;;6172431;23;20175;-88
2022/03/08 16:11:56;;;;;;;13.10;6.05;;;;;;;;;;6188424;23;20581;-88
2022/03/08 16:15:07;;;;;;;11.48;5.70;;;;;;;;;;6171915;23;20216;-88
2022/03/08 16:18:13;;;;;;;12.73;5.60;;;;;;;;;;6172200;23;20542;-88
2022/03/08 16:21:22;;;;;;;16.95;6.40;;;;;;;;;;6170864;23;20172;-86
2022/03/08 16:24:29;;;;;;;16.48;6.45;;;;;;;;;;6169101;23;20624;-88
2022/03/08 16:32:04;;;;;;;15.05;6.47;;;;;;;;;;6171489;23;20193;-89
2022/03/08 16:35:12;;;;;;;14.07;6.47;;;;;;;;;;6190422;23;20189;-88
2022/03/08 16:38:18;;;;;;;15.50;6.40;;;;;;;;;;6171099;23;20237;-86
2022/03/08 16:41:25;;;;;;;15.00;7.10;;;;;;;;;;6174913;23;20200;-88
2022/03/08 16:44:30;;;;;;;19.92;8.77;;;;;;;;;;6189428;23;20204;-89
2022/03/08 16:47:35;;;;;;;23.10;8.10;;;;;;;;;;6171938;23;20169;-87
2022/03/08 16:50:40;;;;;;;19.00;7.70;;;;;;;;;;6170119;23;20176;-88
2022/03/08 16:53:46;;;;;;;17.97;7.53;;;;;;;;;;6171010;23;20200;-88
2022/03/08 16:56:56;;;;;;;18.60;7.20;;;;;;;;;;6169596;23;20188;-88
2022/03/08 17:00:03;;;;;;;17.37;6.63;;;;;;;;;;6186416;23;20737;-88
2022/03/08 17:03:11;;;;;;;18.17;7.33;;;;;;;;;;6170012;23;20168;-88
2022/03/08 17:06:16;;;;;;;14.47;6.60;;;;;;;;;;6168521;23;20237;-88
2022/03/08 17:09:23;;;;;;;18.80;7.00;;;;;;;;;;6170844;23;20193;-88
2022/03/08 17:12:29;;;;;;;15.87;6.30;;;;;;;;;;6169229;23;20208;-85
2022/03/08 17:15:50;;;;;;;21.73;6.63;;;;;;;;;;6171825;23;20177;-89
2022/03/08 17:18:57;;;;;;;21.97;7.20;;;;;;;;;;6169597;23;20619;-87
2022/03/08 17:22:02;;;;;;;16.07;6.50;;;;;;;;;;6168886;23;20173;-89
2022/03/08 17:25:09;;;;;;;18.73;7.30;;;;;;;;;;6170512;23;20175;-87
2022/03/08 17:28:16;;;;;;;17.17;7.20;;;;;;;;;;6169436;23;20245;-88
2022/03/08 17:31:22;;;;;;;16.63;7.17;;;;;;;;;;6170366;23;20172;-88
2022/03/08 17:34:28;;;;;;;14.67;6.13;;;;;;;;;;6169687;23;20168;-87
2022/03/08 17:37:33;;;;;;;14.20;7.00;;;;;;;;;;6168323;23;20253;-88
2022/03/08 17:40:38;;;;;;;15.33;6.20;;;;;;;;;;6170471;23;20197;-89
2022/03/08 17:43:44;;;;;;;15.77;6.20;;;;;;;;;;6169977;23;20169;-89
2022/03/08 17:46:50;;;;;;;22.00;6.70;;;;;;;;;;6168579;23;20244;-89
2022/03/08 17:49:55;;;;;;;68.03;25.00;;;;;;;;;;6171010;23;20204;-89
2022/03/08 17:53:00;;;;;;;42.53;14.50;;;;;;;;;;6169955;23;20196;-88
2022/03/08 17:56:07;;;;;;;25.80;10.50;;;;;;;;;;6175018;23;20500;-89
2022/03/08 17:59:13;;;;;;;24.20;8.73;;;;;;;;;;6173933;23;20218;-89
2022/03/08 18:02:19;;;;;;;25.07;8.83;;;;;;;;;;6171735;23;20192;-87
2022/03/08 18:05:24;;;;;;;24.60;8.77;;;;;;;;;;6171378;23;20233;-89
2022/03/08 18:08:29;;;;;;;22.40;9.30;;;;;;;;;;6172613;23;20217;-89
2022/03/08 18:11:37;;;;;;;28.93;10.33;;;;;;;;;;6176707;23;20201;-88
2022/03/08 18:14:46;;;;;;;22.73;9.13;;;;;;;;;;6174629;23;20192;-87
2022/03/08 18:17:52;;;;;;;23.60;8.33;;;;;;;;;;6177102;23;20181;-88
2022/03/08 18:20:57;;;;;;;21.10;8.67;;;;;;;;;;6174744;23;20172;-89
2022/03/08 18:24:04;;;;;;;22.93;9.70;;;;;;;;;;6176225;23;20181;-88
2022/03/08 18:27:10;;;;;;;21.87;8.53;;;;;;;;;;6174105;23;20216;-89
2022/03/08 18:30:19;;;;;;;24.27;8.47;;;;;;;;;;6176338;23;20209;-89